Time;durP1;ratioP1;P1;durP2;ratioP2;P2;SDS_P1;SDS_P2;PMS_P1;PMS_P2;Temp;Humidity;BMP_temperature;BMP_pressure;BME280_temperature;BME280_humidity;BME280_pressure;Samples;Min_cycle;Max_cycle;Signal;HPM_P1;HPM_P2
2023/09/11 00:00:59;;;;;;;;;;;19.80;99.90;;;;;;5138874;27;20577;-76
2023/09/11 00:03:24;;;;;;;;;;;19.90;99.90;;;;;;5140126;27;20010;-75
2023/09/11 00:05:50;;;;;;;;;;;19.90;99.90;;;;;;5123569;27;19946;-76
2023/09/11 00:08:15;;;;;;;;;;;19.90;99.90;;;;;;5138631;27;19928;-76
2023/09/11 00:10:41;;;;;;;;;;;19.90;99.90;;;;;;5138729;27;19923;-76
2023/09/11 00:13:07;;;;;;;;;;;19.80;99.90;;;;;;5139441;27;19923;-76
2023/09/11 00:15:34;;;;;;;;;;;19.80;99.90;;;;;;5134544;27;19926;-75
2023/09/11 00:18:00;;;;;;;;;;;19.80;99.90;;;;;;5138968;27;19920;-76
2023/09/11 00:20:25;;;;;;;;;;;19.80;99.90;;;;;;5121528;27;19983;-76
2023/09/11 00:22:51;;;;;;;;;;;19.70;99.90;;;;;;5144873;27;19944;-76
2023/09/11 00:25:16;;;;;;;;;;;19.70;99.90;;;;;;5126291;27;19929;-76
2023/09/11 00:27:42;;;;;;;;;;;19.70;99.90;;;;;;5142651;27;19929;-76
2023/09/11 00:30:08;;;;;;;;;;;19.60;99.90;;;;;;5149774;27;19926;-77
2023/09/11 00:32:33;;;;;;;;;;;19.60;99.90;;;;;;5134257;27;19923;-76
2023/09/11 00:34:59;;;;;;;;;;;19.60;99.90;;;;;;5143229;27;19919;-77
2023/09/11 00:37:24;;;;;;;;;;;19.60;99.90;;;;;;5146246;27;19918;-76
2023/09/11 00:39:50;;;;;;;;;;;19.60;99.90;;;;;;5145092;27;20001;-76
2023/09/11 00:42:15;;;;;;;;;;;19.50;99.90;;;;;;5139809;27;19939;-75
2023/09/11 00:44:41;;;;;;;;;;;19.50;99.90;;;;;;5126953;27;19923;-76
2023/09/11 00:47:07;;;;;;;;;;;19.50;99.90;;;;;;5145108;27;19926;-76
2023/09/11 00:49:33;;;;;;;;;;;19.50;99.90;;;;;;5144160;27;20258;-76
2023/09/11 00:51:58;;;;;;;;;;;20.00;99.90;;;;;;5145093;27;19919;-76
2023/09/11 00:54:25;;;;;;;;;;;19.40;99.90;;;;;;5142880;27;20063;-76
2023/09/11 00:56:51;;;;;;;;;;;19.50;99.90;;;;;;5141616;27;19920;-76
2023/09/11 00:59:17;;;;;;;;;;;19.40;99.90;;;;;;5141905;27;20400;-76
2023/09/11 01:01:43;;;;;;;;;;;19.40;99.90;;;;;;5144612;27;19923;-76
2023/09/11 01:04:09;;;;;;;;;;;19.40;99.90;;;;;;5146179;27;19919;-76
2023/09/11 01:06:35;;;;;;;;;;;19.40;99.90;;;;;;5143707;27;20370;-76
2023/09/11 01:09:01;;;;;;;;;;;19.40;99.90;;;;;;5124240;27;20006;-76
2023/09/11 01:11:27;;;;;;;;;;;19.40;99.90;;;;;;5136371;27;19923;-76
2023/09/11 01:13:53;;;;;;;;;;;19.30;99.90;;;;;;5144802;27;19930;-76
2023/09/11 01:16:24;;;;;;;;;;;19.30;99.90;;;;;;5144985;27;19922;-76
2023/09/11 01:18:58;;;;;;;;;;;19.30;99.90;;;;;;5144481;27;19919;-75
2023/09/11 01:21:43;;;;;;;;;;;19.20;99.90;;;;;;5143182;27;20457;-76
2023/09/11 01:24:14;;;;;;;;;;;19.20;99.90;;;;;;5124344;27;19927;-76
2023/09/11 01:26:58;;;;;;;;;;;19.20;99.90;;;;;;5141300;27;19926;-76
2023/09/11 01:29:25;;;;;;;;;;;19.20;99.90;;;;;;5107587;27;20322;-76
2023/09/11 01:31:51;;;;;;;;;;;19.20;99.90;;;;;;5113388;27;19964;-77
2023/09/11 01:34:17;;;;;;;;;;;19.20;99.90;;;;;;5141751;27;19923;-76
2023/09/11 01:36:42;;;;;;;;;;;19.20;99.90;;;;;;5122655;27;19930;-75
2023/09/11 01:39:08;;;;;;;;;;;19.20;99.90;;;;;;5142772;27;20026;-76
2023/09/11 01:41:35;;;;;;;;;;;19.10;99.90;;;;;;5124363;27;19924;-76
2023/09/11 01:44:08;;;;;;;;;;;19.10;99.90;;;;;;5141340;27;19930;-76
2023/09/11 01:46:34;;;;;;;;;;;19.10;99.90;;;;;;5144875;27;19913;-76
2023/09/11 01:49:00;;;;;;;;;;;19.10;99.90;;;;;;5151318;27;20013;-76
2023/09/11 01:51:28;;;;;;;;;;;19.10;99.90;;;;;;5141847;27;19927;-76
2023/09/11 01:53:54;;;;;;;;;;;19.80;99.90;;;;;;5140894;27;20025;-77
2023/09/11 01:56:20;;;;;;;;;;;19.00;99.90;;;;;;5149811;27;20013;-76
2023/09/11 01:58:45;;;;;;;;;;;19.00;99.90;;;;;;5140920;27;19968;-77
2023/09/11 02:01:11;;;;;;;;;;;19.00;99.90;;;;;;5140530;27;19964;-77
2023/09/11 02:03:38;;;;;;;;;;;19.00;99.90;;;;;;5142905;27;19919;-77
2023/09/11 02:06:04;;;;;;;;;;;19.00;99.90;;;;;;5143708;27;19919;-75
2023/09/11 02:08:29;;;;;;;;;;;19.00;99.90;;;;;;5135243;27;19923;-76
2023/09/11 02:10:55;;;;;;;;;;;19.00;99.90;;;;;;5103641;27;19928;-76
2023/09/11 02:13:20;;;;;;;;;;;19.00;99.90;;;;;;5122475;27;19919;-76
2023/09/11 02:15:46;;;;;;;;;;;19.00;99.90;;;;;;5113430;27;20258;-76
2023/09/11 02:18:12;;;;;;;;;;;19.00;99.90;;;;;;5140228;27;19966;-75
2023/09/11 02:20:37;;;;;;;;;;;18.90;99.90;;;;;;5126812;27;19993;-75
2023/09/11 02:23:03;;;;;;;;;;;18.90;99.90;;;;;;5139704;27;19924;-75
2023/09/11 02:25:28;;;;;;;;;;;18.90;99.90;;;;;;5140557;27;20039;-76
2023/09/11 02:27:54;;;;;;;;;;;18.90;99.90;;;;;;5123260;27;20364;-76
2023/09/11 02:30:19;;;;;;;;;;;18.90;99.90;;;;;;5120549;27;19919;-76
2023/09/11 02:32:45;;;;;;;;;;;18.80;99.90;;;;;;5112920;27;19934;-75
2023/09/11 02:35:11;;;;;;;;;;;18.80;99.90;;;;;;5124216;27;19923;-75
2023/09/11 02:37:36;;;;;;;;;;;18.80;99.90;;;;;;5125035;27;20395;-76
2023/09/11 02:40:03;;;;;;;;;;;18.80;99.90;;;;;;5123766;27;19926;-76
2023/09/11 02:42:28;;;;;;;;;;;18.80;99.90;;;;;;5119596;27;20002;-76
2023/09/11 02:44:54;;;;;;;;;;;18.70;99.90;;;;;;5142400;27;20052;-76
2023/09/11 02:47:19;;;;;;;;;;;18.70;99.90;;;;;;5140749;27;19918;-76
2023/09/11 02:49:45;;;;;;;;;;;18.70;99.90;;;;;;5146248;27;20385;-76
2023/09/11 02:52:10;;;;;;;;;;;18.70;99.90;;;;;;5140515;27;19920;-76
2023/09/11 02:54:36;;;;;;;;;;;18.70;99.90;;;;;;5149004;27;19951;-76
2023/09/11 02:57:01;;;;;;;;;;;18.60;99.90;;;;;;5120424;27;20399;-75
2023/09/11 02:59:27;;;;;;;;;;;18.60;99.90;;;;;;5106155;27;19930;-75
2023/09/11 03:01:52;;;;;;;;;;;18.60;99.90;;;;;;5125115;27;19930;-76
2023/09/11 03:04:18;;;;;;;;;;;18.60;99.90;;;;;;5115944;27;19923;-76
2023/09/11 03:06:44;;;;;;;;;;;18.50;99.90;;;;;;5139763;27;20389;-76
2023/09/11 03:09:09;;;;;;;;;;;18.50;99.90;;;;;;5123069;27;19923;-76
2023/09/11 03:11:35;;;;;;;;;;;18.50;99.90;;;;;;5116027;27;19934;-76
2023/09/11 03:14:00;;;;;;;;;;;18.50;99.90;;;;;;5146992;27;19923;-76
2023/09/11 03:16:26;;;;;;;;;;;18.50;99.90;;;;;;5139052;27;19933;-77
2023/09/11 03:18:52;;;;;;;;;;;18.40;99.90;;;;;;5144897;27;19964;-76
2023/09/11 03:21:17;;;;;;;;;;;18.40;99.90;;;;;;5140068;27;19919;-76
2023/09/11 03:23:43;;;;;;;;;;;18.40;99.90;;;;;;5142033;27;20030;-76
2023/09/11 03:26:15;;;;;;;;;;;18.40;99.90;;;;;;5139085;27;20066;-76
2023/09/11 03:28:43;;;;;;;;;;;18.30;99.90;;;;;;5120914;28;19923;-76
2023/09/11 03:31:08;;;;;;;;;;;18.40;99.90;;;;;;5130348;27;19968;-76
2023/09/11 03:33:34;;;;;;;;;;;18.30;99.90;;;;;;5119648;27;19927;-76
2023/09/11 03:35:59;;;;;;;;;;;18.30;99.90;;;;;;5140961;27;19998;-77
2023/09/11 03:38:25;;;;;;;;;;;18.30;99.90;;;;;;5139631;27;19929;-76
2023/09/11 03:40:51;;;;;;;;;;;18.30;99.90;;;;;;5141732;27;19967;-75
2023/09/11 03:43:16;;;;;;;;;;;18.20;99.90;;;;;;5139311;27;19918;-76
2023/09/11 03:45:42;;;;;;;;;;;18.20;99.90;;;;;;5139775;27;19923;-76
2023/09/11 03:48:07;;;;;;;;;;;18.10;99.90;;;;;;5145740;27;19923;-75
2023/09/11 03:50:33;;;;;;;;;;;18.10;99.90;;;;;;5139466;27;19971;-76
2023/09/11 03:52:59;;;;;;;;;;;18.10;99.90;;;;;;5139406;27;20301;-76
2023/09/11 03:55:25;;;;;;;;;;;18.10;99.90;;;;;;5144650;27;19926;-75
2023/09/11 03:57:50;;;;;;;;;;;18.10;99.90;;;;;;5147183;27;20328;-76
2023/09/11 04:00:16;;;;;;;;;;;18.10;99.90;;;;;;5137213;27;19927;-75
2023/09/11 04:02:41;;;;;;;;;;;18.10;99.90;;;;;;5124532;27;20080;-76
2023/09/11 04:05:07;;;;;;;;;;;18.10;99.90;;;;;;5140851;27;19976;-76
2023/09/11 04:07:32;;;;;;;;;;;18.10;99.90;;;;;;5146512;27;19919;-75
2023/09/11 04:09:58;;;;;;;;;;;18.10;99.90;;;;;;5145985;27;19919;-76
2023/09/11 04:12:24;;;;;;;;;;;18.10;99.90;;;;;;5124606;27;19923;-76
2023/09/11 04:14:50;;;;;;;;;;;18.10;99.90;;;;;;5145592;27;20059;-76
2023/09/11 04:17:16;;;;;;;;;;;18.10;99.90;;;;;;5145866;27;19991;-76
2023/09/11 04:19:42;;;;;;;;;;;18.10;99.90;;;;;;5141999;27;20399;-76
2023/09/11 04:22:08;;;;;;;;;;;18.10;99.90;;;;;;5146140;27;19922;-76
2023/09/11 04:24:33;;;;;;;;;;;18.10;99.90;;;;;;5127189;27;19929;-76
2023/09/11 04:26:59;;;;;;;;;;;18.10;99.90;;;;;;5125179;27;19972;-76
2023/09/11 04:29:24;;;;;;;;;;;18.10;99.90;;;;;;5141521;27;19986;-76
2023/09/11 04:31:50;;;;;;;;;;;18.00;99.90;;;;;;5116177;27;19927;-75
2023/09/11 04:34:19;;;;;;;;;;;18.00;99.90;;;;;;5143037;27;19928;-76
2023/09/11 04:36:44;;;;;;;;;;;18.10;99.90;;;;;;5142718;27;19938;-76
2023/09/11 04:39:12;;;;;;;;;;;18.00;99.90;;;;;;5143878;27;19919;-76
2023/09/11 04:41:37;;;;;;;;;;;17.90;99.90;;;;;;5124856;27;19923;-76
2023/09/11 04:44:03;;;;;;;;;;;17.90;99.90;;;;;;5124587;27;19968;-76
2023/09/11 04:46:29;;;;;;;;;;;17.90;99.90;;;;;;5144493;27;19970;-76
2023/09/11 04:48:55;;;;;;;;;;;17.90;99.90;;;;;;5145578;27;19930;-76
2023/09/11 04:51:21;;;;;;;;;;;17.80;99.90;;;;;;5141536;27;19923;-76
2023/09/11 04:53:46;;;;;;;;;;;17.80;99.90;;;;;;5123701;27;19927;-76
2023/09/11 04:56:12;;;;;;;;;;;17.80;99.90;;;;;;5122189;27;19923;-76
2023/09/11 04:58:37;;;;;;;;;;;17.70;99.90;;;;;;5117633;27;19923;-76
2023/09/11 05:01:03;;;;;;;;;;;17.80;99.90;;;;;;5144661;27;19960;-77
2023/09/11 05:03:28;;;;;;;;;;;17.70;99.90;;;;;;5143421;27;19919;-76
2023/09/11 05:05:54;;;;;;;;;;;17.70;99.90;;;;;;5141179;27;20358;-77
2023/09/11 05:08:20;;;;;;;;;;;17.80;99.90;;;;;;5118849;27;19924;-75
2023/09/11 05:10:45;;;;;;;;;;;17.80;99.90;;;;;;5141682;27;20353;-77
2023/09/11 05:13:11;;;;;;;;;;;17.80;99.90;;;;;;5139049;27;19974;-76
2023/09/11 05:15:37;;;;;;;;;;;17.80;99.90;;;;;;5143865;27;20408;-75
2023/09/11 05:18:03;;;;;;;;;;;17.90;99.90;;;;;;5142522;27;19939;-76
2023/09/11 05:20:28;;;;;;;;;;;17.90;99.90;;;;;;5140270;27;19943;-75
2023/09/11 05:22:55;;;;;;;;;;;18.00;99.90;;;;;;5125259;27;19930;-76
2023/09/11 05:25:21;;;;;;;;;;;18.00;99.90;;;;;;5141762;27;20256;-76
2023/09/11 05:27:46;;;;;;;;;;;18.10;99.90;;;;;;5142236;27;20014;-77
2023/09/11 05:30:13;;;;;;;;;;;18.20;99.90;;;;;;5139982;27;20303;-76
2023/09/11 05:32:38;;;;;;;;;;;18.20;99.90;;;;;;5132559;27;19985;-76
2023/09/11 05:35:05;;;;;;;;;;;18.30;99.90;;;;;;5143777;27;20368;-76
2023/09/11 05:37:30;;;;;;;;;;;18.40;99.90;;;;;;5143822;27;19923;-76
2023/09/11 05:39:56;;;;;;;;;;;18.40;99.90;;;;;;5144734;27;19991;-75
2023/09/11 05:42:21;;;;;;;;;;;18.50;99.90;;;;;;5140595;27;19919;-76
2023/09/11 05:44:48;;;;;;;;;;;18.50;99.90;;;;;;5141000;27;19930;-76
2023/09/11 05:47:14;;;;;;;;;;;18.60;99.90;;;;;;5141521;27;19968;-76
2023/09/11 05:49:39;;;;;;;;;;;18.70;99.90;;;;;;5140799;27;19976;-75
2023/09/11 05:52:05;;;;;;;;;;;18.70;99.90;;;;;;5140577;27;19971;-76
2023/09/11 05:54:33;;;;;;;;;;;18.80;99.90;;;;;;5116606;27;19923;-76
2023/09/11 05:56:59;;;;;;;;;;;18.80;99.90;;;;;;5144354;27;19923;-75
2023/09/11 05:59:25;;;;;;;;;;;18.90;99.90;;;;;;5142240;27;20005;-76
2023/09/11 06:01:50;;;;;;;;;;;18.90;99.90;;;;;;5141187;27;19923;-75
2023/09/11 06:04:16;;;;;;;;;;;19.00;99.90;;;;;;5143380;27;20002;-76
2023/09/11 06:06:43;;;;;;;;;;;19.00;99.90;;;;;;5140687;27;19938;-75
2023/09/11 06:09:09;;;;;;;;;;;19.10;99.90;;;;;;5143144;27;20389;-75
2023/09/11 06:11:34;;;;;;;;;;;19.20;99.90;;;;;;5098993;27;19923;-76
2023/09/11 06:14:00;;;;;;;;;;;19.30;99.90;;;;;;5143317;27;19923;-75
2023/09/11 06:16:26;;;;;;;;;;;19.30;99.90;;;;;;5144136;27;19976;-76
2023/09/11 06:18:51;;;;;;;;;;;19.40;99.90;;;;;;5139549;27;19926;-76
2023/09/11 06:21:17;;;;;;;;;;;19.50;99.90;;;;;;5124875;27;19923;-75
2023/09/11 06:23:43;;;;;;;;;;;19.60;99.90;;;;;;5122562;27;20005;-76
2023/09/11 06:26:09;;;;;;;;;;;19.60;99.90;;;;;;5143960;27;20010;-76
2023/09/11 06:28:34;;;;;;;;;;;19.70;99.90;;;;;;5142994;27;19930;-76
2023/09/11 06:31:00;;;;;;;;;;;19.80;99.90;;;;;;5114607;27;19923;-76
2023/09/11 06:33:28;;;;;;;;;;;19.90;99.90;;;;;;5136507;27;19927;-75
2023/09/11 06:35:54;;;;;;;;;;;19.90;99.90;;;;;;5142825;27;19919;-76
2023/09/11 06:38:20;;;;;;;;;;;20.00;99.90;;;;;;5139587;27;19966;-76
2023/09/11 06:40:46;;;;;;;;;;;20.10;99.90;;;;;;5142180;27;20308;-75
2023/09/11 06:43:11;;;;;;;;;;;20.20;99.90;;;;;;5122985;27;19962;-78
2023/09/11 06:45:38;;;;;;;;;;;20.30;99.90;;;;;;5104353;27;20027;-75
2023/09/11 06:48:05;;;;;;;;;;;20.40;99.90;;;;;;5125425;27;19919;-76
2023/09/11 06:50:31;;;;;;;;;;;20.50;99.90;;;;;;5135044;27;19975;-76
2023/09/11 06:52:56;;;;;;;;;;;20.60;99.90;;;;;;5143417;27;19919;-76
2023/09/11 06:55:22;;;;;;;;;;;20.70;99.90;;;;;;5141432;27;19962;-76
2023/09/11 06:57:55;;;;;;;;;;;20.90;99.90;;;;;;5139730;27;20343;-76
2023/09/11 07:00:21;;;;;;;;;;;21.00;99.90;;;;;;5144962;27;19919;-76
2023/09/11 07:02:47;;;;;;;;;;;21.20;99.90;;;;;;5121947;27;19929;-77
2023/09/11 07:05:13;;;;;;;;;;;21.30;99.90;;;;;;5140198;27;20235;-76
2023/09/11 07:07:39;;;;;;;;;;;20.70;99.90;;;;;;5141960;27;19930;-76
2023/09/11 07:10:04;;;;;;;;;;;21.50;99.90;;;;;;5142058;27;19919;-76
2023/09/11 07:12:30;;;;;;;;;;;21.60;99.90;;;;;;5139406;27;19919;-76
2023/09/11 07:14:56;;;;;;;;;;;21.80;99.90;;;;;;5121627;28;20014;-76
2023/09/11 07:17:21;;;;;;;;;;;21.90;99.90;;;;;;5121455;28;19924;-76
2023/09/11 07:19:47;;;;;;;;;;;22.00;99.90;;;;;;5125601;27;19922;-75
2023/09/11 07:22:13;;;;;;;;;;;;;;;;;;5141686;27;20258;-76
2023/09/11 07:24:39;;;;;;;;;;;;;;;;;;5107535;27;19982;-76
2023/09/11 07:27:05;;;;;;;;;;;22.50;99.90;;;;;;5143354;27;19923;-77
2023/09/11 07:29:30;;;;;;;;;;;22.60;99.90;;;;;;5116253;27;19923;-77
2023/09/11 07:31:56;;;;;;;;;;;22.70;99.90;;;;;;5134884;27;19927;-76
2023/09/11 07:34:21;;;;;;;;;;;22.80;99.90;;;;;;5128301;27;19923;-77
2023/09/11 07:36:47;;;;;;;;;;;22.90;99.90;;;;;;5129444;27;20276;-77
2023/09/11 07:39:13;;;;;;;;;;;23.00;99.90;;;;;;5144669;27;19923;-78
2023/09/11 07:41:38;;;;;;;;;;;23.10;99.90;;;;;;5146346;27;19968;-78
2023/09/11 07:44:04;;;;;;;;;;;23.10;99.90;;;;;;5127365;27;19946;-78
2023/09/11 07:46:30;;;;;;;;;;;23.20;99.90;;;;;;5139071;27;20009;-77
2023/09/11 07:48:55;;;;;;;;;;;23.20;99.90;;;;;;5146114;27;19923;-76
2023/09/11 07:51:21;;;;;;;;;;;23.40;99.90;;;;;;5145648;27;19989;-78
2023/09/11 07:53:46;;;;;;;;;;;23.40;99.90;;;;;;5141505;27;19923;-78
2023/09/11 07:56:13;;;;;;;;;;;23.60;99.90;;;;;;5143175;27;19930;-78
2023/09/11 07:58:38;;;;;;;;;;;23.60;99.90;;;;;;5107607;27;19945;-77
2023/09/11 08:01:04;;;;;;;;;;;23.70;99.90;;;;;;5144560;27;19927;-77
2023/09/11 08:03:34;;;;;;;;;;;23.80;99.90;;;;;;5143532;27;19923;-77
2023/09/11 08:06:05;;;;;;;;;;;23.90;99.90;;;;;;5143131;27;20395;-77
2023/09/11 08:08:31;;;;;;;;;;;24.00;99.90;;;;;;5143784;27;19919;-77
2023/09/11 08:10:57;;;;;;;;;;;24.10;99.90;;;;;;5128295;27;19980;-77
2023/09/11 08:13:22;;;;;;;;;;;24.20;99.90;;;;;;5146336;27;19923;-77
2023/09/11 08:15:48;;;;;;;;;;;24.30;99.90;;;;;;5143458;27;19988;-77
2023/09/11 08:18:13;;;;;;;;;;;24.30;99.90;;;;;;5145367;27;19923;-77
2023/09/11 08:20:44;;;;;;;;;;;24.40;99.90;;;;;;5140296;27;20413;-77
2023/09/11 08:23:10;;;;;;;;;;;24.60;99.90;;;;;;5146346;27;19919;-77
2023/09/11 08:25:35;;;;;;;;;;;24.70;99.90;;;;;;5126943;27;19957;-77
2023/09/11 08:28:01;;;;;;;;;;;24.80;99.90;;;;;;5137199;27;19974;-76
2023/09/11 08:30:27;;;;;;;;;;;24.90;99.90;;;;;;5138481;27;19927;-77
2023/09/11 08:32:52;;;;;;;;;;;25.00;99.90;;;;;;5134759;27;20337;-77
2023/09/11 08:35:18;;;;;;;;;;;25.10;99.90;;;;;;5145642;27;19923;-77
2023/09/11 08:37:43;;;;;;;;;;;25.20;99.90;;;;;;5145599;27;19965;-77
2023/09/11 08:40:09;;;;;;;;;;;25.30;99.90;;;;;;5143170;27;19931;-77
2023/09/11 08:42:35;;;;;;;;;;;25.40;99.90;;;;;;5133059;27;19958;-76
2023/09/11 08:45:00;;;;;;;;;;;25.50;99.90;;;;;;5142794;27;19919;-78
2023/09/11 08:47:29;;;;;;;;;;;25.60;99.90;;;;;;5157862;27;19923;-78
2023/09/11 08:49:57;;;;;;;;;;;25.60;99.90;;;;;;5141470;27;19923;-78
2023/09/11 08:52:24;;;;;;;;;;;25.70;99.90;;;;;;5133911;27;20002;-78
2023/09/11 08:54:52;;;;;;;;;;;25.90;99.90;;;;;;5129679;27;19922;-77
2023/09/11 08:57:21;;;;;;;;;;;25.90;99.90;;;;;;5144735;27;19975;-77
2023/09/11 08:59:48;;;;;;;;;;;26.00;99.90;;;;;;5122982;27;20894;-77
2023/09/11 09:02:14;;;;;;;;;;;26.10;99.90;;;;;;5142213;27;19973;-77
2023/09/11 09:04:40;;;;;;;;;;;26.10;99.90;;;;;;5144496;27;19954;-78
2023/09/11 09:07:06;;;;;;;;;;;26.20;99.90;;;;;;5145373;27;20466;-77
2023/09/11 09:09:32;;;;;;;;;;;26.20;99.90;;;;;;5139960;27;19919;-77
2023/09/11 09:11:58;;;;;;;;;;;26.20;99.90;;;;;;5146685;27;19923;-77
2023/09/11 09:14:24;;;;;;;;;;;26.30;99.90;;;;;;5142392;27;19923;-77
2023/09/11 09:16:49;;;;;;;;;;;26.30;99.90;;;;;;5124811;27;19927;-77
2023/09/11 09:19:15;;;;;;;;;;;26.40;99.90;;;;;;5143609;27;20388;-78
2023/09/11 09:21:59;;;;;;;;;;;26.40;99.90;;;;;;5126446;27;19927;-77
2023/09/11 09:24:26;;;;;;;;;;;26.50;99.90;;;;;;5123267;27;19923;-77
2023/09/11 09:26:58;;;;;;;;;;;26.50;99.90;;;;;;5123519;27;20386;-78
2023/09/11 09:29:24;;;;;;;;;;;26.60;99.90;;;;;;5139802;27;19924;-78
2023/09/11 09:31:50;;;;;;;;;;;26.60;99.90;;;;;;5132829;27;19926;-77
2023/09/11 09:34:15;;;;;;;;;;;26.70;99.90;;;;;;5144854;27;19966;-77
2023/09/11 09:36:50;;;;;;;;;;;26.70;99.90;;;;;;5142228;27;20006;-76
2023/09/11 09:39:17;;;;;;;;;;;26.80;99.90;;;;;;5124201;27;20032;-76
2023/09/11 09:42:01;;;;;;;;;;;26.80;99.90;;;;;;5143955;27;19931;-77
2023/09/11 09:44:34;;;;;;;;;;;26.90;99.90;;;;;;5125519;27;20025;-77
2023/09/11 09:47:07;;;;;;;;;;;26.90;99.90;;;;;;5122924;27;20013;-76
2023/09/11 09:49:34;;;;;;;;;;;26.90;99.90;;;;;;5144234;27;19919;-77
2023/09/11 09:52:02;;;;;;;;;;;26.90;99.90;;;;;;5143882;27;19929;-77
2023/09/11 09:54:40;;;;;;;;;;;27.00;99.90;;;;;;5141917;27;19934;-77
2023/09/11 09:57:08;;;;;;;;;;;27.00;99.90;;;;;;5141411;27;20301;-77
2023/09/11 09:59:34;;;;;;;;;;;27.10;99.90;;;;;;5125592;27;19976;-78
2023/09/11 10:01:59;;;;;;;;;;;27.20;99.90;;;;;;5144087;27;19923;-77
2023/09/11 10:04:25;;;;;;;;;;;27.30;99.90;;;;;;5142982;27;19923;-76
2023/09/11 10:06:52;;;;;;;;;;;27.30;99.90;;;;;;5140156;27;20013;-77
2023/09/11 10:09:19;;;;;;;;;;;27.40;99.90;;;;;;5145120;27;19918;-77
2023/09/11 10:11:44;;;;;;;;;;;27.50;99.90;;;;;;5134913;27;19923;-78
2023/09/11 10:14:10;;;;;;;;;;;27.50;99.90;;;;;;5144246;27;19938;-77
2023/09/11 10:16:36;;;;;;;;;;;27.60;99.90;;;;;;5142378;27;19950;-77
2023/09/11 10:19:02;;;;;;;;;;;27.70;99.90;;;;;;5139914;27;19926;-77
2023/09/11 10:21:29;;;;;;;;;;;27.70;99.90;;;;;;5144468;27;19919;-75
2023/09/11 10:23:54;;;;;;;;;;;27.60;99.90;;;;;;5140428;27;19923;-77
2023/09/11 10:26:34;;;;;;;;;;;27.70;99.90;;;;;;5140571;27;20389;-76
2023/09/11 10:29:04;;;;;;;;;;;27.70;99.90;;;;;;5114272;27;19930;-78
2023/09/11 10:31:32;;;;;;;;;;;27.80;99.90;;;;;;5131238;27;19923;-77
2023/09/11 10:34:00;;;;;;;;;;;27.90;99.90;;;;;;5131248;27;20010;-77
2023/09/11 10:36:36;;;;;;;;;;;27.90;99.90;;;;;;5140655;27;19930;-78
2023/09/11 10:39:04;;;;;;;;;;;28.00;99.90;;;;;;5141883;27;19923;-77
2023/09/11 10:41:30;;;;;;;;;;;28.10;99.90;;;;;;5141673;27;19923;-77
2023/09/11 10:43:56;;;;;;;;;;;28.10;99.90;;;;;;5139947;27;19927;-76
2023/09/11 10:46:21;;;;;;;;;;;28.20;99.90;;;;;;5122778;27;20641;-77
2023/09/11 10:48:47;;;;;;;;;;;28.20;99.90;;;;;;5138625;27;19927;-78
2023/09/11 10:51:13;;;;;;;;;;;28.30;99.90;;;;;;5142521;27;19918;-77
2023/09/11 10:53:40;;;;;;;;;;;28.40;99.90;;;;;;5139153;27;19963;-77
2023/09/11 10:56:06;;;;;;;;;;;28.30;99.90;;;;;;5121782;27;20029;-78
2023/09/11 10:58:32;;;;;;;;;;;28.30;99.90;;;;;;5142259;27;20433;-78
2023/09/11 11:00:58;;;;;;;;;;;28.30;99.90;;;;;;5142969;27;19922;-77
2023/09/11 11:03:24;;;;;;;;;;;28.40;99.90;;;;;;5123172;27;19977;-78
2023/09/11 11:05:51;;;;;;;;;;;28.30;99.90;;;;;;5139787;27;19923;-76
2023/09/11 11:08:17;;;;;;;;;;;28.30;99.90;;;;;;5143217;27;20289;-76
2023/09/11 11:10:45;;;;;;;;;;;28.30;99.90;;;;;;5140115;27;19923;-79
2023/09/11 11:13:11;;;;;;;;;;;28.40;99.90;;;;;;5142997;27;19990;-77
2023/09/11 11:15:37;;;;;;;;;;;28.40;99.90;;;;;;5143016;27;20042;-77
2023/09/11 11:18:09;;;;;;;;;;;28.40;99.90;;;;;;5124140;27;19923;-76
2023/09/11 11:20:35;;;;;;;;;;;28.50;99.90;;;;;;5144720;27;20281;-77
2023/09/11 11:23:07;;;;;;;;;;;28.50;99.90;;;;;;5138686;27;19993;-77
2023/09/11 11:25:33;;;;;;;;;;;28.50;99.90;;;;;;5139133;27;19981;-77
2023/09/11 11:28:14;;;;;;;;;;;28.60;99.90;;;;;;5141483;27;19970;-77
2023/09/11 11:30:40;;;;;;;;;;;28.70;99.90;;;;;;5134709;27;19972;-77
2023/09/11 11:33:07;;;;;;;;;;;28.70;99.90;;;;;;5115808;27;20041;-77
2023/09/11 11:35:33;;;;;;;;;;;28.70;99.90;;;;;;5142637;27;19923;-77
2023/09/11 11:37:58;;;;;;;;;;;28.60;99.90;;;;;;5141078;27;19967;-77
2023/09/11 11:40:25;;;;;;;;;;;28.60;99.90;;;;;;5139221;27;20621;-78
2023/09/11 11:42:51;;;;;;;;;;;28.60;99.90;;;;;;5120377;28;19930;-76
2023/09/11 11:45:17;;;;;;;;;;;28.60;99.90;;;;;;5139100;27;19927;-77
2023/09/11 11:47:43;;;;;;;;;;;28.60;99.90;;;;;;5139040;27;20369;-76
2023/09/11 11:50:09;;;;;;;;;;;28.60;99.90;;;;;;5139522;27;19938;-77
2023/09/11 11:52:35;;;;;;;;;;;28.60;99.90;;;;;;5142522;27;20291;-76
2023/09/11 11:55:00;;;;;;;;;;;28.70;99.90;;;;;;5141901;27;20037;-77
2023/09/11 11:57:26;;;;;;;;;;;28.70;99.90;;;;;;5140391;27;19950;-77
2023/09/11 11:59:52;;;;;;;;;;;28.70;99.90;;;;;;5138970;27;19919;-77
2023/09/11 12:02:21;;;;;;;;;;;28.80;99.90;;;;;;5140005;27;20049;-77
2023/09/11 12:04:46;;;;;;;;;;;28.90;99.90;;;;;;5137737;27;19927;-77
2023/09/11 12:07:12;;;;;;;;;;;29.00;99.90;;;;;;5104681;28;19925;-76
2023/09/11 12:09:40;;;;;;;;;;;29.10;99.90;;;;;;5144204;27;19926;-76
2023/09/11 12:12:06;;;;;;;;;;;29.20;99.90;;;;;;5137343;27;19934;-76
2023/09/11 12:14:32;;;;;;;;;;;29.10;99.90;;;;;;5142380;27;20437;-77
2023/09/11 12:16:58;;;;;;;;;;;29.10;99.90;;;;;;5145934;27;19926;-76
2023/09/11 12:19:23;;;;;;;;;;;29.00;99.90;;;;;;5142906;27;19927;-77
2023/09/11 12:21:49;;;;;;;;;;;29.10;99.90;;;;;;5145929;27;19923;-77
2023/09/11 12:24:15;;;;;;;;;;;29.10;99.90;;;;;;5142328;27;20357;-76
2023/09/11 12:26:41;;;;;;;;;;;29.20;99.90;;;;;;5138276;27;19930;-77
2023/09/11 12:29:06;;;;;;;;;;;29.30;99.90;;;;;;5123625;27;20319;-78
2023/09/11 12:31:32;;;;;;;;;;;29.30;99.90;;;;;;5149696;27;20438;-76
2023/09/11 12:33:58;;;;;;;;;;;29.20;99.90;;;;;;5123689;27;19923;-76
2023/09/11 12:36:23;;;;;;;;;;;29.20;99.90;;;;;;5141959;27;19948;-76
2023/09/11 12:38:49;;;;;;;;;;;29.10;99.90;;;;;;5123249;27;19984;-76
2023/09/11 12:41:16;;;;;;;;;;;29.10;99.90;;;;;;5143146;27;19958;-77
2023/09/11 12:43:42;;;;;;;;;;;29.20;99.90;;;;;;5127438;27;19923;-77
2023/09/11 12:46:08;;;;;;;;;;;29.20;99.90;;;;;;5143484;27;20037;-77
2023/09/11 12:48:39;;;;;;;;;;;29.30;99.90;;;;;;5145048;27;20397;-76
2023/09/11 12:51:04;;;;;;;;;;;29.30;99.90;;;;;;5144602;27;19933;-76
2023/09/11 12:53:30;;;;;;;;;;;29.40;99.90;;;;;;5124228;27;19919;-77
2023/09/11 12:55:55;;;;;;;;;;;29.40;99.90;;;;;;5142014;27;20452;-77
2023/09/11 12:58:22;;;;;;;;;;;29.40;99.90;;;;;;5143416;27;20294;-77
2023/09/11 13:00:48;;;;;;;;;;;29.50;99.90;;;;;;5144840;27;19937;-76
2023/09/11 13:03:13;;;;;;;;;;;29.60;99.90;;;;;;5136930;27;19923;-76
2023/09/11 13:05:41;;;;;;;;;;;29.70;99.70;;;;;;5144953;27;19992;-77
2023/09/11 13:08:08;;;;;;;;;;;29.60;99.50;;;;;;5142349;27;19938;-76
2023/09/11 13:10:34;;;;;;;;;;;29.60;99.60;;;;;;5140785;27;20453;-76
2023/09/11 13:12:59;;;;;;;;;;;29.60;99.90;;;;;;5138002;27;19923;-76
2023/09/11 13:15:25;;;;;;;;;;;29.80;99.60;;;;;;5145795;27;20266;-77
2023/09/11 13:17:51;;;;;;;;;;;29.90;99.40;;;;;;5141331;27;19970;-77
2023/09/11 13:20:16;;;;;;;;;;;30.00;98.30;;;;;;5122412;27;19939;-76
2023/09/11 13:22:42;;;;;;;;;;;30.20;97.50;;;;;;5140704;27;19931;-76
2023/09/11 13:25:08;;;;;;;;;;;30.30;97.20;;;;;;5136947;27;20035;-76
2023/09/11 13:27:34;;;;;;;;;;;30.40;97.10;;;;;;5136242;27;20009;-76
2023/09/11 13:29:59;;;;;;;;;;;30.50;96.70;;;;;;5140921;27;20222;-77
2023/09/11 13:32:25;;;;;;;;;;;30.50;97.10;;;;;;5132933;27;19923;-76
2023/09/11 13:34:50;;;;;;;;;;;30.70;97.40;;;;;;5140734;27;20425;-77
2023/09/11 13:37:16;;;;;;;;;;;30.90;97.80;;;;;;5141335;27;19931;-77
2023/09/11 13:39:42;;;;;;;;;;;31.10;97.50;;;;;;5141266;27;20416;-77
2023/09/11 13:42:08;;;;;;;;;;;31.30;97.40;;;;;;5146263;27;20575;-77
2023/09/11 13:44:33;;;;;;;;;;;31.40;96.00;;;;;;5141325;27;19962;-77
2023/09/11 13:46:59;;;;;;;;;;;31.40;95.70;;;;;;5140904;27;19938;-78
2023/09/11 13:49:25;;;;;;;;;;;31.40;96.00;;;;;;5142829;27;19992;-77
2023/09/11 13:51:53;;;;;;;;;;;31.60;95.90;;;;;;5140794;27;20562;-79
2023/09/11 13:54:19;;;;;;;;;;;31.90;96.10;;;;;;5142873;27;19929;-78
2023/09/11 13:56:45;;;;;;;;;;;32.00;95.20;;;;;;5144035;27;19923;-78
2023/09/11 13:59:10;;;;;;;;;;;32.00;94.50;;;;;;5125337;27;19918;-78
2023/09/11 14:01:36;;;;;;;;;;;31.90;94.40;;;;;;5100763;27;19927;-77
2023/09/11 14:04:02;;;;;;;;;;;31.90;94.00;;;;;;5143421;27;19923;-78
2023/09/11 14:06:27;;;;;;;;;;;31.90;93.40;;;;;;5124067;27;19968;-77
2023/09/11 14:08:53;;;;;;;;;;;31.80;92.50;;;;;;5121692;27;19984;-77
2023/09/11 14:11:18;;;;;;;;;;;31.70;92.60;;;;;;5146724;27;19923;-77
2023/09/11 14:13:44;;;;;;;;;;;31.60;92.50;;;;;;5140949;27;19927;-78